Terminal Aerodrome Forecast
Issued by NWS

Home | Current Version | Previous Version | Text Only | Print | Product List | Glossary On
Versions: 1 2 3 4 5 6 7 8 9 10 11 12 13
000
FTUS41 KBTV 220905 AAA
TAFMSS
TAF AMD
KMSS 220905Z 2209/2306 06010G20KT P6SM SCT008 OVC030
      TEMPO 2209/2212 BKN008
     FM221200 06010G20KT P6SM OVC015
     FM221900 06014G21KT 6SM BR VCSH OVC020
     FM222100 06015G25KT 2SM -SN BR OVC015
     FM222300 06015G25KT 1/2SM -SNPL FZFG OVC008
     FM230200 06012G18KT 1/2SM -FZRAPL FZFG OVC006
     FM230400 06011G17KT 2SM -FZRA BR OVC008=

USA.gov is the U.S. government's official web portal to all federal, state and local government web resources and services.